Time;durP1;ratioP1;P1;durP2;ratioP2;P2;SDS_P1;SDS_P2;PMS_P1;PMS_P2;Temp;Humidity;BMP_temperature;BMP_pressure;BME280_temperature;BME280_humidity;BME280_pressure;Samples;Min_cycle;Max_cycle;Signal;HPM_P1;HPM_P2
2022/01/14 00:01:24;;;;;;;;;;;20.10;47.10;;;;;;5094124;28;19923;-63
2022/01/14 00:03:50;;;;;;;;;;;20.00;47.00;;;;;;5093100;28;19924;-63
2022/01/14 00:06:15;;;;;;;;;;;20.00;47.00;;;;;;5089806;28;19912;-63
2022/01/14 00:08:41;;;;;;;;;;;20.00;47.20;;;;;;5090860;28;19912;-63
2022/01/14 00:11:14;;;;;;;;;;;19.90;47.10;;;;;;5086099;28;19912;-63
2022/01/14 00:16:08;;;;;;;;;;;19.90;47.30;;;;;;5091457;28;19969;-63
2022/01/14 00:18:34;;;;;;;;;;;19.90;47.10;;;;;;5089439;28;20014;-63
2022/01/14 00:21:00;;;;;;;;;;;19.80;47.30;;;;;;5080681;28;19923;-63
2022/01/14 00:23:30;;;;;;;;;;;19.80;47.30;;;;;;5087175;28;20338;-63
2022/01/14 00:31:46;;;;;;;;;;;19.80;47.40;;;;;;5084545;28;19923;-63
2022/01/14 00:34:12;;;;;;;;;;;19.80;47.50;;;;;;5092981;28;19916;-63
2022/01/14 00:36:37;;;;;;;;;;;19.70;47.40;;;;;;5093491;28;20261;-63
2022/01/14 00:39:03;;;;;;;;;;;19.70;47.40;;;;;;5080971;28;20349;-63
2022/01/14 00:41:29;;;;;;;;;;;19.70;47.10;;;;;;5097619;28;19912;-63
2022/01/14 00:44:01;;;;;;;;;;;19.80;47.30;;;;;;5088363;28;19923;-63
2022/01/14 00:46:26;;;;;;;;;;;19.70;47.10;;;;;;5087530;28;20365;-63
2022/01/14 00:48:52;;;;;;;;;;;19.70;47.10;;;;;;5084202;28;19919;-63
2022/01/14 00:51:17;;;;;;;;;;;19.70;46.90;;;;;;5091083;28;19919;-63
2022/01/14 00:53:43;;;;;;;;;;;19.70;47.20;;;;;;5090609;28;20041;-64
2022/01/14 00:56:21;;;;;;;;;;;19.80;47.00;;;;;;5079824;28;19939;-64
2022/01/14 01:01:31;;;;;;;;;;;19.80;47.00;;;;;;5092897;28;19919;-64
2022/01/14 01:03:56;;;;;;;;;;;19.80;47.00;;;;;;5091182;28;19912;-63
2022/01/14 01:06:22;;;;;;;;;;;19.80;47.00;;;;;;5092203;28;20391;-63
2022/01/14 01:08:50;;;;;;;;;;;19.80;47.00;;;;;;5091855;28;20379;-63
2022/01/14 01:11:23;;;;;;;;;;;19.80;46.90;;;;;;5092946;28;19918;-63
2022/01/14 01:13:51;;;;;;;;;;;19.80;46.70;;;;;;5096946;28;19926;-63
2022/01/14 01:16:16;;;;;;;;;;;19.80;46.70;;;;;;5089454;28;19958;-63
2022/01/14 01:18:42;;;;;;;;;;;19.80;46.30;;;;;;5091985;28;19920;-63
2022/01/14 01:21:07;;;;;;;;;;;19.90;46.30;;;;;;5092132;28;19916;-63
2022/01/14 01:23:33;;;;;;;;;;;19.90;46.20;;;;;;5091537;28;19912;-63
2022/01/14 01:26:09;;;;;;;;;;;19.90;46.10;;;;;;5091950;28;19920;-63
2022/01/14 01:28:41;;;;;;;;;;;19.90;45.90;;;;;;5098559;28;21733;-63
2022/01/14 01:31:35;;;;;;;;;;;20.00;46.10;;;;;;5082063;28;19970;-63
2022/01/14 01:33:51;;;;;;;;;;;19.90;46.00;;;;;;5091473;28;20293;-63
2022/01/14 01:36:17;;;;;;;;;;;19.90;45.90;;;;;;5090634;28;20037;-63
2022/01/14 01:38:42;;;;;;;;;;;19.90;46.20;;;;;;5091508;28;19919;-63
2022/01/14 01:41:11;;;;;;;;;;;19.90;46.10;;;;;;5083551;28;19912;-64
2022/01/14 01:43:38;;;;;;;;;;;19.90;45.80;;;;;;5088439;28;19912;-63
2022/01/14 01:46:03;;;;;;;;;;;19.90;46.00;;;;;;5081433;28;20077;-63
2022/01/14 01:48:29;;;;;;;;;;;19.90;46.00;;;;;;5081668;28;20010;-63
2022/01/14 01:50:54;;;;;;;;;;;19.90;45.90;;;;;;5091856;28;20392;-63
2022/01/14 01:53:20;;;;;;;;;;;19.90;45.80;;;;;;5091533;28;20265;-63
2022/01/14 01:55:45;;;;;;;;;;;19.90;45.90;;;;;;5090322;28;19915;-63
2022/01/14 01:58:11;;;;;;;;;;;19.90;46.60;;;;;;5091259;28;19994;-63
2022/01/14 02:00:36;;;;;;;;;;;19.90;45.80;;;;;;5078394;28;19913;-63
2022/01/14 02:03:01;;;;;;;;;;;19.90;45.90;;;;;;5088829;28;19919;-63
2022/01/14 02:05:27;;;;;;;;;;;19.80;45.80;;;;;;5090330;28;19923;-63
2022/01/14 02:07:52;;;;;;;;;;;19.80;45.80;;;;;;5089609;28;19999;-63
2022/01/14 02:10:18;;;;;;;;;;;19.90;45.70;;;;;;5091613;28;20005;-63
2022/01/14 02:12:51;;;;;;;;;;;19.80;45.90;;;;;;5074126;28;19920;-63
2022/01/14 02:15:44;;;;;;;;;;;19.80;45.90;;;;;;5089754;28;19960;-63
2022/01/14 02:23:25;;;;;;;;;;;19.80;45.90;;;;;;5088214;28;19965;-63
2022/01/14 02:25:51;;;;;;;;;;;19.70;46.00;;;;;;5088534;28;20311;-64
2022/01/14 02:28:17;;;;;;;;;;;19.60;46.50;;;;;;5090767;28;19978;-64
2022/01/14 02:30:46;;;;;;;;;;;19.60;46.70;;;;;;5091344;28;20280;-64
2022/01/14 02:33:12;;;;;;;;;;;19.60;46.70;;;;;;5090939;28;19912;-64
2022/01/14 02:35:41;;;;;;;;;;;19.70;46.70;;;;;;5091338;28;19912;-63
2022/01/14 02:38:06;;;;;;;;;;;19.80;46.50;;;;;;5089018;28;19912;-63
2022/01/14 02:40:32;;;;;;;;;;;20.00;46.30;;;;;;5086595;28;19908;-63
2022/01/14 02:43:00;;;;;;;;;;;20.20;45.80;;;;;;5090265;28;19912;-63
2022/01/14 02:45:31;;;;;;;;;;;20.40;45.40;;;;;;5090145;28;21315;-64
2022/01/14 02:47:56;;;;;;;;;;;20.50;44.90;;;;;;5089243;28;20268;-64
2022/01/14 02:50:24;;;;;;;;;;;20.70;45.00;;;;;;5091154;28;19920;-63
2022/01/14 02:55:20;;;;;;;;;;;20.90;44.20;;;;;;5085468;28;19966;-63
2022/01/14 02:57:46;;;;;;;;;;;21.00;44.10;;;;;;5083716;28;20325;-63
2022/01/14 03:00:12;;;;;;;;;;;21.10;43.90;;;;;;5090509;28;19920;-63
2022/01/14 03:02:38;;;;;;;;;;;21.20;43.80;;;;;;5087753;28;19965;-63
2022/01/14 03:05:04;;;;;;;;;;;21.20;43.60;;;;;;5069189;28;19932;-63
2022/01/14 03:07:29;;;;;;;;;;;21.30;43.60;;;;;;5073744;28;20284;-63
2022/01/14 03:09:55;;;;;;;;;;;21.40;43.50;;;;;;5079226;28;19912;-63
2022/01/14 03:12:20;;;;;;;;;;;21.40;43.30;;;;;;5088028;28;19913;-63
2022/01/14 03:14:46;;;;;;;;;;;21.40;43.30;;;;;;5085607;28;19923;-63
2022/01/14 03:17:12;;;;;;;;;;;21.40;43.30;;;;;;5087984;28;19923;-63
2022/01/14 03:19:37;;;;;;;;;;;21.40;43.40;;;;;;5083230;28;20365;-64
2022/01/14 03:22:07;;;;;;;;;;;21.40;43.30;;;;;;5079910;28;19912;-64
2022/01/14 03:27:00;;;;;;;;;;;21.40;43.30;;;;;;5084430;28;20337;-64
2022/01/14 03:29:26;;;;;;;;;;;21.50;43.40;;;;;;5084305;28;19924;-64
2022/01/14 03:31:51;;;;;;;;;;;21.50;43.40;;;;;;5085744;28;19965;-64
2022/01/14 03:34:17;;;;;;;;;;;21.50;43.40;;;;;;5084284;28;19912;-64
2022/01/14 03:36:42;;;;;;;;;;;21.50;43.40;;;;;;5080727;28;20010;-64
2022/01/14 03:39:08;;;;;;;;;;;21.40;43.50;;;;;;5086500;28;19913;-64
2022/01/14 03:41:33;;;;;;;;;;;21.30;43.60;;;;;;5088055;28;19916;-64
2022/01/14 03:43:59;;;;;;;;;;;21.20;43.80;;;;;;5094682;28;20369;-64
2022/01/14 03:46:24;;;;;;;;;;;21.10;44.00;;;;;;5088223;28;19920;-64
2022/01/14 03:48:52;;;;;;;;;;;21.00;44.30;;;;;;5118031;27;20399;-64
2022/01/14 03:51:18;;;;;;;;;;;20.90;44.50;;;;;;5080899;28;19934;-63
2022/01/14 03:53:46;;;;;;;;;;;20.80;44.70;;;;;;5092926;28;20373;-64
2022/01/14 03:56:11;;;;;;;;;;;20.70;44.90;;;;;;5086128;28;19933;-64
2022/01/14 03:58:36;;;;;;;;;;;20.60;44.90;;;;;;5090500;28;19991;-64
2022/01/14 04:01:02;;;;;;;;;;;20.60;45.10;;;;;;5088650;28;19912;-63
2022/01/14 04:03:28;;;;;;;;;;;20.60;44.90;;;;;;5089697;28;19913;-63
2022/01/14 04:05:53;;;;;;;;;;;20.50;44.80;;;;;;5094320;28;20260;-63
2022/01/14 04:08:18;;;;;;;;;;;20.50;44.80;;;;;;5094550;28;20446;-64
2022/01/14 04:10:45;;;;;;;;;;;20.50;44.90;;;;;;5093974;28;20380;-64
2022/01/14 04:13:18;;;;;;;;;;;20.50;44.80;;;;;;5126921;27;19908;-64
2022/01/14 04:15:46;;;;;;;;;;;20.40;44.70;;;;;;5132851;27;20367;-64
2022/01/14 04:18:16;;;;;;;;;;;20.40;44.70;;;;;;5094263;28;20295;-63
2022/01/14 04:20:47;;;;;;;;;;;20.30;44.80;;;;;;5079508;28;19909;-63
2022/01/14 04:23:13;;;;;;;;;;;20.30;44.70;;;;;;5090589;28;20342;-63
2022/01/14 04:25:38;;;;;;;;;;;20.30;45.00;;;;;;5092340;28;19999;-64
2022/01/14 04:28:06;;;;;;;;;;;20.20;45.10;;;;;;5092691;28;19916;-63
2022/01/14 04:30:32;;;;;;;;;;;20.10;45.10;;;;;;5093957;28;19908;-63
2022/01/14 04:32:58;;;;;;;;;;;20.10;45.20;;;;;;5094093;28;19908;-63
2022/01/14 04:35:24;;;;;;;;;;;20.10;45.10;;;;;;5093881;28;19908;-63
2022/01/14 04:37:49;;;;;;;;;;;20.10;45.00;;;;;;5093877;28;20392;-63
2022/01/14 04:40:15;;;;;;;;;;;20.10;45.10;;;;;;5093651;28;20295;-62
2022/01/14 04:42:44;;;;;;;;;;;20.10;45.20;;;;;;5093816;28;19908;-63
2022/01/14 04:45:10;;;;;;;;;;;20.00;45.10;;;;;;5093912;28;19916;-63
2022/01/14 04:47:44;;;;;;;;;;;20.00;45.10;;;;;;5093323;28;19981;-63
2022/01/14 04:50:12;;;;;;;;;;;20.10;45.10;;;;;;5093666;28;20392;-63
2022/01/14 04:52:39;;;;;;;;;;;20.00;45.00;;;;;;5092377;28;20009;-63
2022/01/14 04:55:05;;;;;;;;;;;20.00;45.10;;;;;;5093101;28;19945;-63
2022/01/14 04:57:30;;;;;;;;;;;20.00;45.10;;;;;;5093384;28;19908;-63
2022/01/14 04:59:56;;;;;;;;;;;20.00;45.10;;;;;;5093411;28;20003;-63
2022/01/14 05:02:22;;;;;;;;;;;20.00;45.10;;;;;;5093531;28;19908;-63
2022/01/14 05:04:47;;;;;;;;;;;20.00;45.00;;;;;;5093124;28;20368;-63
2022/01/14 05:07:23;;;;;;;;;;;19.90;45.00;;;;;;5093409;28;19908;-63
2022/01/14 05:09:57;;;;;;;;;;;19.90;45.10;;;;;;5093029;28;20362;-64
2022/01/14 05:12:23;;;;;;;;;;;19.90;45.00;;;;;;5100179;28;19908;-63
2022/01/14 05:14:48;;;;;;;;;;;19.90;45.00;;;;;;5093038;28;20412;-63
2022/01/14 05:17:14;;;;;;;;;;;19.90;45.00;;;;;;5093055;28;19942;-63
2022/01/14 05:19:39;;;;;;;;;;;19.90;45.00;;;;;;5091764;28;19908;-63
2022/01/14 05:22:05;;;;;;;;;;;19.90;45.00;;;;;;5093560;28;19961;-63
2022/01/14 05:24:30;;;;;;;;;;;19.80;44.90;;;;;;5092668;28;19908;-63
2022/01/14 05:26:56;;;;;;;;;;;19.80;44.90;;;;;;5092995;28;20364;-63
2022/01/14 05:29:21;;;;;;;;;;;19.80;45.70;;;;;;5092954;28;20366;-63
2022/01/14 05:31:47;;;;;;;;;;;19.80;45.10;;;;;;5092690;28;19908;-63
2022/01/14 05:34:13;;;;;;;;;;;19.80;45.00;;;;;;5091533;28;19908;-63
2022/01/14 05:36:39;;;;;;;;;;;19.80;44.80;;;;;;5092939;28;20292;-63
2022/01/14 05:39:04;;;;;;;;;;;19.90;44.90;;;;;;5091017;28;19916;-63
2022/01/14 05:41:30;;;;;;;;;;;19.80;44.70;;;;;;5092950;28;20338;-63
2022/01/14 05:43:55;;;;;;;;;;;19.80;44.80;;;;;;5092696;28;19943;-63
2022/01/14 05:46:20;;;;;;;;;;;19.80;44.90;;;;;;5092712;28;20360;-63
2022/01/14 05:48:46;;;;;;;;;;;19.80;44.90;;;;;;5092542;28;20280;-63
2022/01/14 05:51:11;;;;;;;;;;;19.80;44.90;;;;;;5092668;28;19978;-63
2022/01/14 05:53:37;;;;;;;;;;;19.70;44.90;;;;;;5092116;28;19931;-63
2022/01/14 05:56:02;;;;;;;;;;;19.70;44.90;;;;;;5092646;28;19908;-63
2022/01/14 05:58:28;;;;;;;;;;;19.70;44.90;;;;;;5092622;28;19912;-63
2022/01/14 06:00:53;;;;;;;;;;;19.70;45.50;;;;;;5092571;28;20018;-63
2022/01/14 06:03:19;;;;;;;;;;;19.70;44.90;;;;;;5092805;28;19919;-64
2022/01/14 06:05:44;;;;;;;;;;;19.70;44.90;;;;;;5092324;28;19931;-63
2022/01/14 06:08:09;;;;;;;;;;;19.70;44.80;;;;;;5092581;28;20422;-63
2022/01/14 06:10:35;;;;;;;;;;;19.70;44.80;;;;;;5091907;28;20371;-63
2022/01/14 06:13:00;;;;;;;;;;;19.70;44.80;;;;;;5091209;28;20283;-63
2022/01/14 06:15:26;;;;;;;;;;;19.70;44.80;;;;;;5092577;28;19915;-63
2022/01/14 06:17:51;;;;;;;;;;;19.70;44.80;;;;;;5092135;28;19955;-63
2022/01/14 06:20:17;;;;;;;;;;;19.70;44.80;;;;;;5092244;28;19908;-63
2022/01/14 06:22:42;;;;;;;;;;;19.60;44.80;;;;;;5091075;28;19943;-63
2022/01/14 06:25:08;;;;;;;;;;;19.70;44.90;;;;;;5091817;28;19912;-63
2022/01/14 06:27:34;;;;;;;;;;;19.70;44.80;;;;;;5091216;28;19920;-63
2022/01/14 06:30:00;;;;;;;;;;;19.70;44.80;;;;;;5092123;28;19912;-62
2022/01/14 06:32:25;;;;;;;;;;;19.70;44.80;;;;;;5092429;28;19955;-63
2022/01/14 06:34:50;;;;;;;;;;;19.70;44.80;;;;;;5092052;28;19919;-63
2022/01/14 06:37:16;;;;;;;;;;;19.60;44.80;;;;;;5124981;28;19908;-63
2022/01/14 06:39:41;;;;;;;;;;;19.60;44.80;;;;;;5090505;28;19999;-63
2022/01/14 06:42:07;;;;;;;;;;;19.60;44.90;;;;;;5092209;28;19908;-63
2022/01/14 06:44:32;;;;;;;;;;;19.60;44.90;;;;;;5094748;28;20410;-63
2022/01/14 06:46:58;;;;;;;;;;;19.60;44.80;;;;;;5129121;27;19916;-63
2022/01/14 06:49:23;;;;;;;;;;;19.60;44.70;;;;;;5095775;28;19924;-63
2022/01/14 06:51:49;;;;;;;;;;;19.60;44.70;;;;;;5096386;28;19959;-63
2022/01/14 06:54:14;;;;;;;;;;;19.60;44.70;;;;;;5094099;28;20307;-63
2022/01/14 06:56:39;;;;;;;;;;;19.60;44.80;;;;;;5095862;28;19908;-63
2022/01/14 06:59:06;;;;;;;;;;;19.60;44.80;;;;;;5095795;28;19957;-63
2022/01/14 07:01:31;;;;;;;;;;;19.50;44.80;;;;;;5095870;28;19908;-63
2022/01/14 07:03:56;;;;;;;;;;;19.50;44.80;;;;;;5095816;28;19909;-63
2022/01/14 07:06:22;;;;;;;;;;;19.50;44.80;;;;;;5095646;28;19912;-63
2022/01/14 07:08:47;;;;;;;;;;;19.50;44.80;;;;;;5095103;28;19912;-63
2022/01/14 07:11:14;;;;;;;;;;;19.50;44.80;;;;;;5095704;28;19908;-63
2022/01/14 07:13:39;;;;;;;;;;;19.50;44.80;;;;;;5094198;28;20384;-63
2022/01/14 07:16:05;;;;;;;;;;;19.50;44.80;;;;;;5095450;28;19964;-63
2022/01/14 07:18:30;;;;;;;;;;;19.50;44.80;;;;;;5095240;28;19920;-63
2022/01/14 07:20:56;;;;;;;;;;;19.40;44.80;;;;;;5094171;28;19909;-63
2022/01/14 07:23:21;;;;;;;;;;;19.50;44.80;;;;;;5095381;28;19915;-63
2022/01/14 07:25:47;;;;;;;;;;;19.50;44.80;;;;;;5094760;28;20006;-63
2022/01/14 07:28:12;;;;;;;;;;;19.50;44.80;;;;;;5095107;28;19908;-63
2022/01/14 07:30:38;;;;;;;;;;;19.40;44.80;;;;;;5095125;28;20330;-63
2022/01/14 07:33:03;;;;;;;;;;;19.40;44.80;;;;;;5095161;28;19915;-63
2022/01/14 07:35:29;;;;;;;;;;;19.40;44.80;;;;;;5094936;28;20292;-63
2022/01/14 07:37:54;;;;;;;;;;;19.40;44.90;;;;;;5095038;28;19924;-63
2022/01/14 07:40:20;;;;;;;;;;;19.40;44.90;;;;;;5094599;28;19912;-62
2022/01/14 07:42:45;;;;;;;;;;;19.30;44.80;;;;;;5095084;28;19951;-63
2022/01/14 07:45:11;;;;;;;;;;;19.40;45.00;;;;;;5094830;28;20368;-63
2022/01/14 07:47:36;;;;;;;;;;;19.30;44.90;;;;;;5094944;28;19909;-63
2022/01/14 07:50:02;;;;;;;;;;;19.40;44.90;;;;;;5095100;28;20364;-63
2022/01/14 07:52:27;;;;;;;;;;;19.40;44.90;;;;;;5095088;28;20352;-63
2022/01/14 07:54:53;;;;;;;;;;;19.40;44.90;;;;;;5093874;28;19909;-63
2022/01/14 07:57:18;;;;;;;;;;;19.30;44.80;;;;;;5093539;28;20470;-62
2022/01/14 07:59:44;;;;;;;;;;;19.30;44.80;;;;;;5094606;28;19916;-63
2022/01/14 08:02:09;;;;;;;;;;;19.30;44.90;;;;;;5094808;28;20011;-63
2022/01/14 08:04:37;;;;;;;;;;;19.30;44.90;;;;;;5094346;28;20341;-63
2022/01/14 08:07:09;;;;;;;;;;;19.30;45.00;;;;;;5094852;28;19908;-63
2022/01/14 08:09:35;;;;;;;;;;;19.30;45.00;;;;;;5094063;28;19919;-63
2022/01/14 08:12:01;;;;;;;;;;;19.30;44.80;;;;;;5093239;28;19909;-63
2022/01/14 08:14:27;;;;;;;;;;;19.30;44.90;;;;;;5094267;28;19912;-63
2022/01/14 08:16:52;;;;;;;;;;;19.30;44.90;;;;;;5094125;28;20284;-63
2022/01/14 08:19:17;;;;;;;;;;;19.30;44.90;;;;;;5094234;28;19909;-63
2022/01/14 08:21:43;;;;;;;;;;;19.30;45.00;;;;;;5094311;28;19922;-63
2022/01/14 08:24:08;;;;;;;;;;;19.30;45.00;;;;;;5093861;28;19930;-63
2022/01/14 08:26:34;;;;;;;;;;;19.20;44.90;;;;;;5094331;28;19916;-63
2022/01/14 08:28:59;;;;;;;;;;;19.20;44.90;;;;;;5094136;28;19912;-63
2022/01/14 08:31:25;;;;;;;;;;;19.20;44.90;;;;;;5094037;28;19912;-63
2022/01/14 08:33:50;;;;;;;;;;;19.30;45.00;;;;;;5093861;28;19990;-63
2022/01/14 08:36:16;;;;;;;;;;;19.30;44.90;;;;;;5093979;28;19908;-63
2022/01/14 08:38:41;;;;;;;;;;;19.20;44.90;;;;;;5093567;28;19931;-63
2022/01/14 08:41:07;;;;;;;;;;;19.20;45.00;;;;;;5092659;28;19908;-63
2022/01/14 08:43:32;;;;;;;;;;;19.20;44.90;;;;;;5093625;28;19908;-63
2022/01/14 08:45:58;;;;;;;;;;;19.20;44.90;;;;;;5093588;28;19927;-63
2022/01/14 08:48:24;;;;;;;;;;;19.20;44.90;;;;;;5093828;28;19933;-63
2022/01/14 08:50:49;;;;;;;;;;;19.20;44.90;;;;;;5093649;28;20384;-63
2022/01/14 08:53:15;;;;;;;;;;;19.20;45.00;;;;;;5092489;28;19912;-63
2022/01/14 08:55:41;;;;;;;;;;;19.20;45.00;;;;;;5091945;28;19915;-63
2022/01/14 08:58:06;;;;;;;;;;;19.20;45.00;;;;;;5093568;28;19912;-63
2022/01/14 09:00:32;;;;;;;;;;;19.20;45.60;;;;;;5092177;28;19922;-63
2022/01/14 09:02:57;;;;;;;;;;;19.20;45.10;;;;;;5092318;28;19908;-63
2022/01/14 09:05:23;;;;;;;;;;;19.20;44.90;;;;;;5092875;28;19912;-63
2022/01/14 09:07:48;;;;;;;;;;;19.20;44.90;;;;;;5092885;28;19908;-63
2022/01/14 09:10:14;;;;;;;;;;;19.20;44.90;;;;;;5092865;28;19911;-63
2022/01/14 09:12:40;;;;;;;;;;;19.20;45.00;;;;;;5093252;28;19977;-63
2022/01/14 09:15:07;;;;;;;;;;;19.20;44.90;;;;;;5093137;28;20288;-63
2022/01/14 09:17:32;;;;;;;;;;;19.10;44.90;;;;;;5091875;28;19920;-63
2022/01/14 09:19:57;;;;;;;;;;;19.20;44.90;;;;;;5092982;28;20368;-63
2022/01/14 09:22:25;;;;;;;;;;;19.20;44.90;;;;;;5093424;28;20048;-63
2022/01/14 09:24:52;;;;;;;;;;;19.10;44.90;;;;;;5092478;28;19941;-63
2022/01/14 09:27:18;;;;;;;;;;;19.10;44.90;;;;;;5091829;28;20325;-63
2022/01/14 09:29:43;;;;;;;;;;;19.10;45.10;;;;;;5091538;28;19994;-63
2022/01/14 09:32:09;;;;;;;;;;;19.10;45.00;;;;;;5093234;27;19912;-63
2022/01/14 09:34:34;;;;;;;;;;;19.10;45.00;;;;;;5092612;28;19934;-63
2022/01/14 09:37:00;;;;;;;;;;;19.10;45.10;;;;;;5091556;28;19955;-63
2022/01/14 09:39:25;;;;;;;;;;;19.10;45.10;;;;;;5092343;28;19908;-63
2022/01/14 09:41:51;;;;;;;;;;;19.10;45.10;;;;;;5092807;28;20268;-63
2022/01/14 09:44:17;;;;;;;;;;;19.10;45.10;;;;;;5092670;28;19934;-63
2022/01/14 09:46:43;;;;;;;;;;;19.00;45.10;;;;;;5092688;28;20007;-63
2022/01/14 09:49:08;;;;;;;;;;;19.00;45.10;;;;;;5092652;28;20336;-63
2022/01/14 09:51:34;;;;;;;;;;;19.00;45.10;;;;;;5092708;28;19994;-63
2022/01/14 09:53:59;;;;;;;;;;;19.00;45.10;;;;;;5090901;28;19912;-63
2022/01/14 09:56:25;;;;;;;;;;;19.00;45.10;;;;;;5092692;28;19912;-63
2022/01/14 09:58:51;;;;;;;;;;;19.00;45.10;;;;;;5092424;28;19995;-63
2022/01/14 10:01:20;;;;;;;;;;;19.00;45.10;;;;;;5091420;28;20347;-63
2022/01/14 10:03:56;;;;;;;;;;;19.00;45.20;;;;;;5091186;28;20293;-63
2022/01/14 10:06:40;;;;;;;;;;;19.00;45.20;;;;;;5092351;28;19919;-63
2022/01/14 10:09:21;;;;;;;;;;;19.00;45.10;;;;;;5071649;28;19912;-63
2022/01/14 10:11:59;;;;;;;;;;;19.00;45.10;;;;;;5072228;28;19908;-63
2022/01/14 10:14:25;;;;;;;;;;;19.00;45.10;;;;;;5072108;28;20446;-63
2022/01/14 10:16:54;;;;;;;;;;;19.00;45.10;;;;;;5072070;28;19912;-63
2022/01/14 10:19:20;;;;;;;;;;;18.90;45.10;;;;;;5075051;28;19918;-63
2022/01/14 10:21:45;;;;;;;;;;;19.00;45.20;;;;;;5076575;28;20347;-63
2022/01/14 10:24:11;;;;;;;;;;;19.00;45.20;;;;;;5075712;28;19948;-63
2022/01/14 10:27:06;;;;;;;;;;;19.00;45.20;;;;;;5078886;28;20326;-63
2022/01/14 10:29:38;;;;;;;;;;;19.00;45.20;;;;;;5087374;28;19908;-63
2022/01/14 10:32:04;;;;;;;;;;;18.90;45.10;;;;;;5096683;28;19961;-63
2022/01/14 10:34:29;;;;;;;;;;;18.90;45.10;;;;;;5096483;28;19912;-63
2022/01/14 10:37:08;;;;;;;;;;;19.00;45.20;;;;;;5129084;27;19962;-63
2022/01/14 10:39:33;;;;;;;;;;;19.00;45.30;;;;;;5095741;28;19908;-63
2022/01/14 10:41:59;;;;;;;;;;;19.00;45.20;;;;;;5096194;28;19912;-63
2022/01/14 10:44:27;;;;;;;;;;;19.00;45.20;;;;;;5096090;28;19985;-63
2022/01/14 10:47:11;;;;;;;;;;;19.00;45.20;;;;;;5096213;28;19912;-63
2022/01/14 10:49:37;;;;;;;;;;;18.90;45.10;;;;;;5096096;28;20335;-62
2022/01/14 10:52:12;;;;;;;;;;;18.90;45.20;;;;;;5096160;28;20280;-62
2022/01/14 10:54:56;;;;;;;;;;;18.90;45.30;;;;;;5095600;28;19973;-63
2022/01/14 10:57:28;;;;;;;;;;;18.90;45.30;;;;;;5095864;28;19908;-63
2022/01/14 10:59:54;;;;;;;;;;;18.90;45.30;;;;;;5094372;28;19908;-63
2022/01/14 11:02:32;;;;;;;;;;;18.90;45.30;;;;;;5096011;28;19916;-63
2022/01/14 11:05:05;;;;;;;;;;;18.90;45.30;;;;;;5077319;28;19916;-63
2022/01/14 11:07:31;;;;;;;;;;;18.90;45.40;;;;;;5095645;28;19908;-63
2022/01/14 11:09:59;;;;;;;;;;;18.90;45.40;;;;;;5095010;28;19912;-63
2022/01/14 11:12:25;;;;;;;;;;;18.80;45.40;;;;;;5095565;28;19955;-63
2022/01/14 11:14:50;;;;;;;;;;;18.80;45.40;;;;;;5095432;28;19939;-63
2022/01/14 11:17:16;;;;;;;;;;;18.80;45.40;;;;;;5095354;28;19920;-63
2022/01/14 11:19:45;;;;;;;;;;;18.80;45.40;;;;;;5095349;28;20284;-63
2022/01/14 11:24:54;;;;;;;;;;;18.80;45.60;;;;;;5094751;28;19922;-63
2022/01/14 11:27:20;;;;;;;;;;;18.80;45.60;;;;;;5095137;28;20373;-63
2022/01/14 11:29:47;;;;;;;;;;;18.80;45.50;;;;;;5094454;28;20296;-63
2022/01/14 11:32:12;;;;;;;;;;;18.80;45.60;;;;;;5094168;28;19908;-63
2022/01/14 11:34:40;;;;;;;;;;;18.80;45.60;;;;;;5093935;28;19915;-63
2022/01/14 11:37:06;;;;;;;;;;;18.80;45.60;;;;;;5093953;28;19912;-63
2022/01/14 11:39:34;;;;;;;;;;;18.80;45.70;;;;;;5093348;28;19915;-63
2022/01/14 11:42:00;;;;;;;;;;;18.80;45.60;;;;;;5095145;28;20395;-63
2022/01/14 11:44:44;;;;;;;;;;;18.70;45.50;;;;;;5094919;28;19916;-63
2022/01/14 11:47:38;;;;;;;;;;;18.80;45.60;;;;;;5095070;28;19938;-63
2022/01/14 11:50:05;;;;;;;;;;;18.80;45.70;;;;;;5088405;28;19909;-63
2022/01/14 11:52:37;;;;;;;;;;;18.70;45.70;;;;;;5094859;28;19908;-63
2022/01/14 11:55:19;;;;;;;;;;;18.70;45.60;;;;;;5094247;28;19916;-63
2022/01/14 11:57:45;;;;;;;;;;;18.70;45.70;;;;;;5093779;28;19912;-63
2022/01/14 12:00:26;;;;;;;;;;;18.70;45.70;;;;;;5094597;28;19957;-63
2022/01/14 12:02:55;;;;;;;;;;;18.70;45.70;;;;;;5094665;28;20346;-63
2022/01/14 12:05:21;;;;;;;;;;;18.70;45.80;;;;;;5094491;28;19923;-63
2022/01/14 12:08:03;;;;;;;;;;;18.70;45.80;;;;;;5094562;28;19909;-63
2022/01/14 12:10:33;;;;;;;;;;;18.70;45.80;;;;;;5093986;28;19908;-63
2022/01/14 12:13:29;;;;;;;;;;;18.60;45.70;;;;;;5094495;28;19923;-63
2022/01/14 12:16:03;;;;;;;;;;;18.70;45.80;;;;;;5094397;28;20299;-63
2022/01/14 12:18:47;;;;;;;;;;;18.70;45.80;;;;;;5095479;28;19920;-63
2022/01/14 12:21:13;;;;;;;;;;;18.70;45.80;;;;;;5094412;28;19908;-63
2022/01/14 12:23:38;;;;;;;;;;;18.60;45.80;;;;;;5093841;28;19912;-63
2022/01/14 12:26:11;;;;;;;;;;;18.60;45.80;;;;;;5094177;28;19927;-63
2022/01/14 12:28:37;;;;;;;;;;;18.60;45.80;;;;;;5093864;28;19915;-63
2022/01/14 12:31:03;;;;;;;;;;;18.60;45.80;;;;;;5094089;28;19908;-63
2022/01/14 12:33:41;;;;;;;;;;;18.60;45.80;;;;;;5093924;28;19915;-63
2022/01/14 12:36:33;;;;;;;;;;;18.60;45.90;;;;;;5094006;28;19950;-63
2022/01/14 12:38:58;;;;;;;;;;;18.60;45.90;;;;;;5091237;28;19908;-63
2022/01/14 12:41:24;;;;;;;;;;;18.60;45.90;;;;;;5091768;28;19912;-63
2022/01/14 12:43:56;;;;;;;;;;;18.60;45.90;;;;;;5093866;28;19919;-63
2022/01/14 12:49:09;;;;;;;;;;;18.60;45.90;;;;;;5093942;28;20434;-63
2022/01/14 12:51:35;;;;;;;;;;;18.60;46.00;;;;;;5093683;28;19909;-63
2022/01/14 12:54:03;;;;;;;;;;;18.60;46.00;;;;;;5093179;28;19908;-63
2022/01/14 12:56:29;;;;;;;;;;;18.60;46.00;;;;;;5093867;28;19908;-63
2022/01/14 12:58:55;;;;;;;;;;;18.60;46.00;;;;;;5093488;28;19912;-63
2022/01/14 13:01:34;;;;;;;;;;;18.60;46.10;;;;;;5092147;28;19915;-63
2022/01/14 13:04:01;;;;;;;;;;;18.60;46.10;;;;;;5092246;28;20300;-63
2022/01/14 13:06:27;;;;;;;;;;;18.60;46.10;;;;;;5093315;28;19912;-63
2022/01/14 13:08:53;;;;;;;;;;;18.60;46.10;;;;;;5092729;28;19915;-63
2022/01/14 13:11:19;;;;;;;;;;;18.60;46.10;;;;;;5092259;28;20308;-63
2022/01/14 13:13:45;;;;;;;;;;;18.60;46.10;;;;;;5093179;28;19955;-63
2022/01/14 13:16:10;;;;;;;;;;;18.60;46.10;;;;;;5093370;28;20383;-63
2022/01/14 13:18:42;;;;;;;;;;;18.60;46.10;;;;;;5092834;28;19954;-63
2022/01/14 13:21:08;;;;;;;;;;;18.60;46.10;;;;;;5091966;28;20433;-63
2022/01/14 13:23:33;;;;;;;;;;;18.60;46.20;;;;;;5092545;28;19917;-63
2022/01/14 13:26:00;;;;;;;;;;;18.50;46.20;;;;;;5093028;28;19923;-63
2022/01/14 13:28:25;;;;;;;;;;;18.50;46.20;;;;;;5092862;28;19908;-63
2022/01/14 13:30:50;;;;;;;;;;;18.50;46.20;;;;;;5092924;28;19983;-63
2022/01/14 13:33:16;;;;;;;;;;;18.50;46.20;;;;;;5092862;28;19908;-63
2022/01/14 13:35:42;;;;;;;;;;;18.50;46.20;;;;;;5092697;28;19908;-63
2022/01/14 13:38:08;;;;;;;;;;;18.50;46.20;;;;;;5091517;28;20006;-63
2022/01/14 13:40:41;;;;;;;;;;;18.50;46.20;;;;;;5092215;28;19912;-63
2022/01/14 13:43:08;;;;;;;;;;;18.50;46.20;;;;;;5091494;28;20283;-63
2022/01/14 13:45:37;;;;;;;;;;;18.50;46.20;;;;;;5092506;28;20440;-63
2022/01/14 13:48:08;;;;;;;;;;;18.50;46.20;;;;;;5092777;28;19909;-63
2022/01/14 13:50:43;;;;;;;;;;;18.50;46.40;;;;;;5092795;28;19909;-63
2022/01/14 13:53:10;;;;;;;;;;;18.50;46.40;;;;;;5091384;28;19912;-63
2022/01/14 13:55:40;;;;;;;;;;;18.40;46.40;;;;;;5092414;28;20372;-63
2022/01/14 13:58:06;;;;;;;;;;;18.40;46.40;;;;;;5091380;28;19920;-63
2022/01/14 14:00:33;;;;;;;;;;;18.40;46.40;;;;;;5090962;28;19990;-63
2022/01/14 14:02:58;;;;;;;;;;;18.50;46.50;;;;;;5092716;28;19915;-63
2022/01/14 14:05:34;;;;;;;;;;;18.50;46.50;;;;;;5092274;28;19916;-63
2022/01/14 14:08:10;;;;;;;;;;;18.50;46.40;;;;;;5092410;28;19912;-63
2022/01/14 14:11:47;;;;;;;;;;;18.50;46.40;;;;;;5090762;28;19916;-63
2022/01/14 14:16:30;;;;;;;;;;;18.50;46.40;;;;;;5091432;28;19915;-63
2022/01/14 14:18:56;;;;;;;;;;;18.50;46.40;;;;;;5090697;28;19924;-63
2022/01/14 14:21:22;;;;;;;;;;;18.50;46.40;;;;;;5092345;28;19908;-63
2022/01/14 14:23:54;;;;;;;;;;;18.50;46.40;;;;;;5091775;28;19912;-63
2022/01/14 14:26:29;;;;;;;;;;;18.40;46.50;;;;;;5092224;28;19916;-62
2022/01/14 14:28:55;;;;;;;;;;;18.40;46.50;;;;;;5098916;28;19973;-63
2022/01/14 14:31:27;;;;;;;;;;;18.40;46.50;;;;;;5090947;28;19908;-63
2022/01/14 14:33:52;;;;;;;;;;;18.40;46.50;;;;;;5092154;28;20269;-63
2022/01/14 14:36:20;;;;;;;;;;;18.40;46.80;;;;;;5092135;28;19931;-62
2022/01/14 14:38:46;;;;;;;;;;;18.40;46.60;;;;;;5091690;28;19916;-63
2022/01/14 14:41:12;;;;;;;;;;;18.30;46.50;;;;;;5092150;28;19953;-63
2022/01/14 14:43:38;;;;;;;;;;;18.40;46.60;;;;;;5124776;28;19915;-63
2022/01/14 14:46:04;;;;;;;;;;;18.40;46.60;;;;;;5092185;28;19918;-63
2022/01/14 14:48:30;;;;;;;;;;;18.40;46.50;;;;;;5091980;28;19919;-63